Time;durP1;ratioP1;P1;durP2;ratioP2;P2;SDS_P1;SDS_P2;PMS_P1;PMS_P2;Temp;Humidity;BMP_temperature;BMP_pressure;BME280_temperature;BME280_humidity;BME280_pressure;Samples;Min_cycle;Max_cycle;Signal;HPM_P1;HPM_P2
2023/08/30 00:04:49;;;;;;;3.13;2.30;;;;;;;14.80;80.96;99189.09;30634856;28;97292;-71
2023/08/30 00:19:50;;;;;;;3.40;1.85;;;;;;;14.83;81.46;99195.88;30633474;28;97173;-73
2023/08/30 00:34:51;;;;;;;2.22;1.67;;;;;;;14.83;81.57;99196.72;30632777;28;97091;-72
2023/08/30 00:49:52;;;;;;;2.13;1.53;;;;;;;14.75;81.22;99180.91;30631473;28;97255;-72
2023/08/30 01:04:53;;;;;;;2.38;1.58;;;;;;;14.75;81.81;99180.06;30614042;28;96940;-71
2023/08/30 01:19:59;;;;;;;3.38;2.38;;;;;;;14.73;81.73;99196.38;30609499;28;97268;-71
2023/08/30 01:35:01;;;;;;;3.67;2.30;;;;;;;14.69;82.00;99211.28;30608744;28;96712;-72
2023/08/30 01:50:03;;;;;;;3.70;2.37;;;;;;;14.61;81.91;99214.22;30606455;28;96696;-72
2023/08/30 02:05:04;;;;;;;3.70;2.43;;;;;;;14.59;82.06;99194.88;30604323;28;96792;-72
2023/08/30 02:20:06;;;;;;;3.00;2.00;;;;;;;14.61;82.21;99208.84;30603027;28;97116;-73
2023/08/30 02:35:06;;;;;;;4.00;2.30;;;;;;;14.43;82.11;99186.31;30602574;28;97546;-72
2023/08/30 02:50:07;;;;;;;5.63;2.92;;;;;;;14.47;82.02;99181.34;30601811;28;96737;-71
2023/08/30 03:05:08;;;;;;;3.03;2.10;;;;;;;14.37;82.02;99163.09;30598992;28;97650;-73
2023/08/30 03:20:08;;;;;;;2.60;1.85;;;;;;;14.34;82.47;99163.56;30596051;28;96735;-67
2023/08/30 03:35:08;;;;;;;3.63;2.38;;;;;;;14.27;82.49;99163.63;30595331;28;97275;-71
2023/08/30 03:50:09;;;;;;;3.72;2.40;;;;;;;14.30;82.21;99170.41;30595882;28;113191;-70
2023/08/30 04:05:10;;;;;;;5.40;3.87;;;;;;;14.29;82.61;99166.88;30593938;28;97082;-71
2023/08/30 04:20:10;;;;;;;5.10;2.72;;;;;;;14.35;82.27;99182.09;30589699;28;115841;-67
2023/08/30 04:35:11;;;;;;;4.07;1.92;;;;;;;14.42;82.45;99187.38;30600096;28;97281;-71
2023/08/30 04:50:11;;;;;;;3.70;2.15;;;;;;;14.47;82.74;99176.81;30609267;28;97450;-70
2023/08/30 05:05:12;;;;;;;3.17;2.33;;;;;;;14.53;82.20;99178.63;30607994;28;99039;-72
2023/08/30 05:20:12;;;;;;;3.40;2.40;;;;;;;14.69;82.40;99171.91;30607228;28;96693;-71
2023/08/30 05:35:13;;;;;;;2.75;1.80;;;;;;;14.99;82.09;99156.91;30605143;28;97001;-72
2023/08/30 05:50:13;;;;;;;4.10;1.50;;;;;;;15.45;81.52;99179.66;30601058;28;97104;-72
2023/08/30 06:05:14;;;;;;;3.85;2.08;;;;;;;15.55;80.72;99184.47;30600756;28;97485;-72
2023/08/30 06:20:14;;;;;;;4.05;2.08;;;;;;;15.78;80.58;99193.69;30599546;28;98251;-72
2023/08/30 06:35:14;;;;;;;2.35;1.45;;;;;;;16.12;79.85;99205.59;30599012;28;96914;-67
2023/08/30 06:50:15;;;;;;;1.77;1.30;;;;;;;15.90;79.38;99224.91;30595137;28;96836;-70
2023/08/30 07:05:15;;;;;;;4.65;1.20;;;;;;;16.08;79.12;99221.34;30596221;28;97664;-67
2023/08/30 07:20:16;;;;;;;2.00;1.00;;;;;;;16.06;78.84;99234.19;30595873;28;97308;-68
2023/08/30 07:35:16;;;;;;;3.58;0.70;;;;;;;16.06;78.26;99241.41;30593170;28;99487;-70
2023/08/30 07:50:16;;;;;;;1.15;0.82;;;;;;;15.95;77.91;99258.31;30591128;28;96774;-69
2023/08/30 08:05:17;;;;;;;4.38;0.82;;;;;;;16.69;77.17;99247.25;30595403;28;97286;-71
2023/08/30 08:20:17;;;;;;;1.38;0.70;;;;;;;17.01;75.33;99252.31;30612630;28;110073;-73
2023/08/30 08:35:17;;;;;;;2.10;0.98;;;;;;;16.37;75.35;99252.94;30612010;28;97262;-72
2023/08/30 08:50:18;;;;;;;0.95;0.70;;;;;;;16.87;75.17;99283.97;30609558;28;107596;-72
2023/08/30 09:05:19;;;;;;;0.75;0.70;;;;;;;16.94;73.87;99289.28;30608724;28;97220;-68
2023/08/30 09:20:20;;;;;;;0.87;0.80;;;;;;;16.56;73.76;99288.63;30605309;28;97977;-67
2023/08/30 09:35:20;;;;;;;3.63;1.10;;;;;;;16.22;74.20;99296.38;30606188;28;97016;-69
2023/08/30 09:50:22;;;;;;;1.30;0.90;;;;;;;16.35;74.42;99282.75;30605204;28;104021;-70
2023/08/30 10:05:23;;;;;;;;;;;;;;;16.51;74.00;99278.56;30604406;28;97181;-67
2023/08/30 10:20:23;;;;;;;3.03;0.90;;;;;;;16.50;73.66;99284.19;30603129;28;98135;-69
2023/08/30 10:35:25;;;;;;;3.75;1.50;;;;;;;16.48;73.77;99280.91;30600246;28;96898;-67
2023/08/30 10:50:30;;;;;;;0.90;0.70;;;;;;;17.34;73.14;99285.84;30598885;28;97284;-69
2023/08/30 11:05:31;;;;;;;1.90;0.97;;;;;;;17.01;72.85;99298.03;30597026;28;96754;-69
2023/08/30 11:20:31;;;;;;;5.03;3.03;;;;;;;17.21;72.78;99297.69;30595895;28;97004;-69
2023/08/30 11:35:31;;;;;;;8.50;3.20;;;;;;;21.54;67.80;99289.91;30593297;28;97003;-71
2023/08/30 11:50:33;;;;;;;3.07;2.40;;;;;;;19.83;65.39;99276.94;30593333;28;97057;-72
2023/08/30 12:05:35;;;;;;;3.00;2.30;;;;;;;19.59;65.82;99298.00;30591890;28;96760;-70
2023/08/30 12:20:35;;;;;;;3.10;2.13;;;;;;;20.27;63.97;99287.66;30587097;28;97370;-71
2023/08/30 12:35:35;;;;;;;5.43;3.90;;;;;;;19.04;64.16;99283.47;30586077;28;108300;-71
2023/08/30 12:50:37;;;;;;;7.83;3.43;;;;;;;18.92;64.29;99279.00;30589348;28;114934;-71
2023/08/30 13:05:37;;;;;;;2.20;2.00;;;;;;;19.97;61.90;99277.38;30608039;28;97504;-69
2023/08/30 13:20:39;;;;;;;2.30;1.40;;;;;;;18.90;63.30;99286.56;30605783;28;97258;-69
2023/08/30 13:35:39;;;;;;;1.67;1.10;;;;;;;19.98;62.84;99283.59;30603665;28;97143;-70
2023/08/30 13:50:43;;;;;;;2.93;0.87;;;;;;;19.02;62.00;99275.63;30600342;28;98169;-69
2023/08/30 14:05:43;;;;;;;1.60;0.80;;;;;;;19.14;62.21;99280.94;30600783;28;97093;-72
2023/08/30 14:20:44;;;;;;;2.50;0.90;;;;;;;19.70;61.43;99294.34;30599567;28;99853;-69
2023/08/30 14:35:44;;;;;;;2.63;0.90;;;;;;;18.90;61.62;99286.56;30600035;28;99789;-71
2023/08/30 14:50:50;;;;;;;1.40;0.73;;;;;;;19.73;61.09;99304.63;30598752;28;97231;-71
2023/08/30 15:05:55;;;;;;;1.23;0.70;;;;;;;18.77;61.40;99306.53;30597683;28;97239;-71
2023/08/30 15:20:56;;;;;;;2.17;1.30;;;;;;;18.33;62.67;99300.97;30591214;28;97234;-71
2023/08/30 15:36:00;;;;;;;2.65;1.70;;;;;;;17.85;63.34;99303.03;30593516;28;97651;-71
2023/08/30 15:51:01;;;;;;;5.10;2.27;;;;;;;17.55;64.54;99309.44;30592873;28;97196;-68
2023/08/30 16:06:01;;;;;;;3.42;1.95;;;;;;;17.60;65.33;99316.81;30592294;28;97312;-67
2023/08/30 16:21:02;;;;;;;5.57;2.20;;;;;;;17.38;65.91;99319.31;30588842;28;97126;-70
2023/08/30 16:36:02;;;;;;;4.10;2.47;;;;;;;17.18;66.44;99330.44;30606623;28;97284;-69
2023/08/30 16:51:04;;;;;;;2.60;1.80;;;;;;;17.15;67.23;99331.72;30610102;28;97229;-72
2023/08/30 17:06:05;;;;;;;;;;;;;;;16.89;67.93;99328.47;30608424;28;97442;-71
2023/08/30 17:21:09;;;;;;;5.40;1.63;;;;;;;16.60;68.77;99334.69;30609349;28;97110;-69
2023/08/30 17:36:09;;;;;;;2.43;1.20;;;;;;;16.12;69.52;99329.19;30604283;28;96715;-71
2023/08/30 17:51:10;;;;;;;3.10;1.10;;;;;;;15.73;70.60;99344.72;30605635;28;97144;-70
2023/08/30 18:06:14;;;;;;;2.17;1.40;;;;;;;15.49;71.75;99347.25;30603862;28;96689;-70
2023/08/30 18:21:15;;;;;;;2.40;1.53;;;;;;;15.45;72.40;99340.69;30600697;28;97115;-70
2023/08/30 18:36:15;;;;;;;3.90;2.00;;;;;;;15.47;72.63;99356.56;30598801;28;96951;-70
2023/08/30 18:51:18;;;;;;;2.78;1.75;;;;;;;15.37;72.83;99368.63;30599804;28;97224;-70
2023/08/30 19:06:19;;;;;;;5.57;2.70;;;;;;;15.37;73.71;99359.78;30599634;28;96726;-68
2023/08/30 19:21:21;;;;;;;4.50;2.90;;;;;;;15.38;74.20;99362.22;30598977;28;97308;-72
2023/08/30 19:36:23;;;;;;;5.17;2.73;;;;;;;15.32;74.80;99363.13;30596854;28;96733;-72
2023/08/30 19:51:24;;;;;;;5.10;2.93;;;;;;;15.25;75.05;99337.41;30593968;28;97220;-68
2023/08/30 20:06:24;;;;;;;4.00;2.73;;;;;;;15.18;75.30;99356.25;30603867;28;97075;-68
2023/08/30 20:21:24;;;;;;;4.53;2.60;;;;;;;15.17;75.77;99355.44;30611903;28;96770;-68
2023/08/30 20:36:25;;;;;;;4.15;2.65;;;;;;;15.08;75.68;99351.38;30612344;28;97362;-69
2023/08/30 20:51:25;;;;;;;5.95;3.45;;;;;;;15.02;76.14;99357.63;30611497;28;97668;-71
2023/08/30 21:06:27;;;;;;;5.07;2.85;;;;;;;14.93;76.17;99356.28;30610503;28;97986;-70
2023/08/30 21:21:27;;;;;;;7.50;4.50;;;;;;;14.86;76.77;99359.81;30609268;28;96863;-69
2023/08/30 21:36:27;;;;;;;8.55;3.50;;;;;;;14.81;76.29;99377.59;30607143;28;97348;-68
2023/08/30 21:51:34;;;;;;;6.80;4.38;;;;;;;14.62;76.90;99387.41;30607473;28;97171;-70
2023/08/30 22:06:35;;;;;;;6.73;4.23;;;;;;;14.47;77.41;99396.53;30605358;28;97056;-70
2023/08/30 22:21:36;;;;;;;8.20;4.40;;;;;;;14.37;77.73;99394.34;30603740;28;97139;-70
2023/08/30 22:36:36;;;;;;;8.40;4.88;;;;;;;14.33;77.46;99390.44;30603815;28;97082;-70
2023/08/30 22:51:37;;;;;;;7.68;4.63;;;;;;;14.25;78.15;99396.03;30601248;28;115982;-70
2023/08/30 23:06:37;;;;;;;7.38;4.85;;;;;;;14.27;78.17;99399.34;30600438;28;96633;-72
2023/08/30 23:21:37;;;;;;;9.38;4.55;;;;;;;14.24;77.92;99386.34;30598539;28;103048;-70
2023/08/30 23:36:39;;;;;;;8.35;4.03;;;;;;;14.26;78.21;99380.81;30596285;28;96937;-70
2023/08/30 23:51:39;;;;;;;7.97;4.40;;;;;;;14.31;78.34;99371.09;30596947;28;96679;-68
